CheckWX is a tool to help pilots better visualize weather data.  It is not intended as a substitute for an official pre-flight weather briefing.

16:30:37 UTC

KLBT TAF
Lumberton Regional Airport
Lumberton, North Carolina, USA
KLBT 141120Z 1412/1512 23005KT 5SM RA BR OVC006 FM141500 25011G18KT P6SM BKN012 FM141800 25013G21KT P6SM SCT050 FM150000 26010KT P6SM BKN070 AMD NOT SKED

Dec-14@
12:00 UTC

Dec-14 @ 12:00 UTC

Dec-14@
15:00 UTC

Dec-14 @ 15:00 UTC

KLBT 141120Z 1412/1512 23005KT 5SM RA BR OVC006

Expired

Wind
  • 230° at 5 KTS
Conditions
Rain, Mist
Cloud Levels
  • Overcast at 600' AGL

Dec-14@
15:00 UTC

Dec-14 @ 15:00 UTC

Dec-14@
18:00 UTC

Dec-14 @ 18:00 UTC

FM141500 25011G18KT P6SM BKN012

From

From Standard forecast or significant change

Wind
  • 250° at 11 KTS
  • {Gusting to 18 KTS
Cloud Levels
  • Broken at 1,200' AGL

Dec-14@
18:00 UTC

Dec-14 @ 18:00 UTC

Dec-15@
00:00 UTC

Dec-15 @ 00:00 UTC

FM141800 25013G21KT P6SM SCT050

From

From Standard forecast or significant change

Wind
  • 250° at 13 KTS
  • {Gusting to 21 KTS
Cloud Levels
  • Scattered at 5,000' AGL

Dec-15@
00:00 UTC

Dec-15 @ 00:00 UTC

Dec-15@
12:00 UTC

Dec-15 @ 12:00 UTC

FM150000 26010KT P6SM BKN070 AMD NOT SKED

From

From Standard forecast or significant change

Wind
  • 260° at 10 KTS
Cloud Levels
  • Broken at 7,000' AGL